Time;durP1;ratioP1;P1;durP2;ratioP2;P2;SDS_P1;SDS_P2;PMS_P1;PMS_P2;Temp;Humidity;BMP_temperature;BMP_pressure;BME280_temperature;BME280_humidity;BME280_pressure;Samples;Min_cycle;Max_cycle;Signal;HPM_P1;HPM_P2
2023/07/14 00:02:30;;;;;;;13.30;7.63;;;;;;;15.50;100.00;101676.22;5092355;28;20043;-74
2023/07/14 00:05:22;;;;;;;14.27;8.82;;;;;;;15.50;100.00;101673.56;5091791;27;20036;-74
2023/07/14 00:08:17;;;;;;;11.45;8.13;;;;;;;15.54;100.00;101676.91;5078400;27;20380;-74
2023/07/14 00:11:09;;;;;;;14.20;9.10;;;;;;;15.58;100.00;101673.16;5096517;27;20090;-74
2023/07/14 00:13:55;;;;;;;13.55;8.50;;;;;;;15.60;100.00;101665.91;5083184;27;20061;-75
2023/07/14 00:16:40;;;;;;;12.65;8.40;;;;;;;15.56;100.00;101675.91;5093733;27;20066;-74
2023/07/14 00:19:26;;;;;;;11.95;8.32;;;;;;;15.51;100.00;101669.94;5078021;27;20263;-75
2023/07/14 00:22:14;;;;;;;14.48;8.63;;;;;;;15.53;100.00;101664.53;5074357;27;20976;-74
2023/07/14 00:25:00;;;;;;;15.50;8.48;;;;;;;15.53;100.00;101662.69;5096589;27;20028;-74
2023/07/14 00:27:46;;;;;;;13.73;9.40;;;;;;;15.56;100.00;101667.88;5097600;27;20495;-74
2023/07/14 00:30:31;;;;;;;15.88;8.95;;;;;;;15.56;100.00;101665.22;5096048;27;20043;-74
2023/07/14 00:33:18;;;;;;;12.73;9.15;;;;;;;15.56;100.00;101667.88;5097240;27;20058;-74
2023/07/14 00:36:06;;;;;;;12.30;8.88;;;;;;;15.57;100.00;101671.41;5095314;27;20056;-73
2023/07/14 00:38:51;;;;;;;14.00;9.35;;;;;;;15.57;100.00;101658.06;5096456;27;20117;-74
2023/07/14 00:41:37;;;;;;;19.08;9.80;;;;;;;15.58;100.00;101662.47;5082973;27;20070;-73
2023/07/14 00:44:23;;;;;;;12.05;8.70;;;;;;;15.58;100.00;101655.31;5098629;27;20035;-74
2023/07/14 00:47:19;;;;;;;14.48;9.35;;;;;;;15.58;100.00;101649.97;5083074;27;21044;-73
2023/07/14 00:50:05;;;;;;;14.15;9.35;;;;;;;15.57;100.00;101650.94;5070806;27;20031;-74
2023/07/14 00:52:51;;;;;;;14.38;8.90;;;;;;;15.57;100.00;101650.06;5081157;27;20039;-74
2023/07/14 00:55:41;;;;;;;13.52;9.88;;;;;;;15.58;100.00;101649.97;5065532;27;20081;-75
2023/07/14 00:58:29;;;;;;;15.68;9.38;;;;;;;15.56;100.00;101651.00;5080058;27;20122;-74
2023/07/14 01:01:22;;;;;;;16.50;9.60;;;;;;;15.55;100.00;101659.97;5078145;27;20050;-74
2023/07/14 01:04:08;;;;;;;13.77;9.38;;;;;;;15.54;100.00;101647.56;5095379;27;20502;-74
2023/07/14 01:06:54;;;;;;;16.77;9.60;;;;;;;15.53;100.00;101649.34;5096966;27;20039;-74
2023/07/14 01:09:40;;;;;;;17.83;9.80;;;;;;;15.53;100.00;101651.19;5081025;27;20126;-74
2023/07/14 01:12:28;;;;;;;15.23;9.13;;;;;;;15.50;100.00;101641.53;5097005;27;20105;-73
2023/07/14 01:15:15;;;;;;;14.38;9.70;;;;;;;15.50;100.00;101646.88;5095882;27;20061;-73
2023/07/14 01:18:01;;;;;;;13.57;9.73;;;;;;;15.50;100.00;101641.53;5078259;27;20302;-73
2023/07/14 01:20:47;;;;;;;14.13;9.35;;;;;;;15.49;100.00;101642.47;5096840;27;20042;-74
2023/07/14 01:23:45;;;;;;;17.10;10.38;;;;;;;15.47;100.00;101636.34;5096277;27;20082;-74
2023/07/14 01:26:53;;;;;;;15.50;9.52;;;;;;;15.47;100.00;101645.22;5096050;27;20030;-74
2023/07/14 01:29:39;;;;;;;13.77;9.32;;;;;;;15.45;100.00;101640.91;5096351;27;20481;-74
2023/07/14 01:32:34;;;;;;;14.77;9.75;;;;;;;15.41;100.00;101637.53;5095597;27;20547;-74
2023/07/14 01:35:26;;;;;;;15.48;9.57;;;;;;;15.37;100.00;101635.13;5076834;27;20046;-73
2023/07/14 01:38:12;;;;;;;14.43;9.65;;;;;;;15.33;100.00;101629.09;5062078;28;21604;-74
2023/07/14 01:40:58;;;;;;;15.98;8.98;;;;;;;15.30;100.00;101640.78;5057778;28;20413;-74
2023/07/14 01:43:44;;;;;;;13.13;8.98;;;;;;;15.28;100.00;101633.81;5056750;28;20202;-73
2023/07/14 01:46:30;;;;;;;12.77;9.18;;;;;;;15.25;100.00;101637.50;5055987;28;20123;-74
2023/07/14 01:49:36;;;;;;;14.88;8.48;;;;;;;15.22;100.00;101637.66;5060920;28;20046;-73
2023/07/14 01:52:27;;;;;;;13.48;9.10;;;;;;;15.19;100.00;101648.47;5047524;28;20067;-73
2023/07/14 01:55:14;;;;;;;13.00;8.70;;;;;;;15.16;100.00;101648.66;5054012;28;20190;-74
2023/07/14 01:58:05;;;;;;;15.60;8.32;;;;;;;15.15;100.00;101645.13;5071435;28;20032;-74
2023/07/14 02:00:52;;;;;;;15.38;8.88;;;;;;;15.12;100.00;101641.75;5053820;28;20123;-74
2023/07/14 02:03:46;;;;;;;12.60;8.00;;;;;;;15.09;100.00;101636.59;5054282;28;20036;-74
2023/07/14 02:06:32;;;;;;;10.35;7.78;;;;;;;15.05;100.00;101641.22;5055508;28;20044;-74
2023/07/14 02:09:20;;;;;;;11.80;7.97;;;;;;;15.03;100.00;101643.09;5053685;28;21962;-74
2023/07/14 02:12:10;;;;;;;10.55;7.45;;;;;;;15.01;100.00;101635.19;5053942;28;20043;-74
2023/07/14 02:15:02;;;;;;;10.73;6.72;;;;;;;14.99;100.00;101637.03;5056309;28;20182;-74
2023/07/14 02:17:49;;;;;;;10.27;7.20;;;;;;;14.98;100.00;101630.00;5045440;28;20447;-74
2023/07/14 02:20:38;;;;;;;11.50;7.38;;;;;;;15.01;100.00;101632.50;5055421;28;20401;-74
2023/07/14 02:23:26;;;;;;;10.82;7.55;;;;;;;15.02;100.00;101628.91;5055716;28;20075;-74
2023/07/14 02:26:31;;;;;;;11.00;7.10;;;;;;;15.04;100.00;101623.50;5054171;28;20047;-74
2023/07/14 02:29:17;;;;;;;12.00;6.93;;;;;;;15.04;100.00;101628.81;5057041;28;20033;-74
2023/07/14 02:32:08;;;;;;;11.43;7.25;;;;;;;15.02;100.00;101626.22;5056826;28;20048;-74
2023/07/14 02:35:02;;;;;;;10.07;6.80;;;;;;;15.01;100.00;101629.84;5055950;28;20037;-75
2023/07/14 02:38:03;;;;;;;11.52;6.53;;;;;;;14.97;100.00;101622.94;5081974;27;20428;-74
2023/07/14 02:40:53;;;;;;;11.73;6.75;;;;;;;14.95;100.00;101632.81;5078742;27;20074;-74
2023/07/14 02:43:39;;;;;;;11.80;6.55;;;;;;;14.94;100.00;101621.28;5077185;27;20044;-74
2023/07/14 02:46:42;;;;;;;10.10;6.10;;;;;;;14.92;100.00;101623.19;5056381;27;20032;-74
2023/07/14 02:49:27;;;;;;;10.02;6.40;;;;;;;14.89;100.00;101622.47;5093457;27;20250;-74
2023/07/14 02:52:14;;;;;;;10.35;6.35;;;;;;;14.87;100.00;101625.22;5091422;27;20028;-74
2023/07/14 02:55:00;;;;;;;9.45;6.00;;;;;;;14.82;100.00;101623.72;5093676;27;20051;-74
2023/07/14 02:57:45;;;;;;;9.48;6.15;;;;;;;14.77;100.00;101624.81;5091957;27;20035;-74
2023/07/14 03:00:31;;;;;;;9.38;5.97;;;;;;;14.75;100.00;101626.72;5092867;27;20067;-74
2023/07/14 03:03:17;;;;;;;10.23;5.65;;;;;;;14.72;100.00;101628.63;5076970;27;20035;-73
2023/07/14 03:06:03;;;;;;;7.95;5.22;;;;;;;14.69;100.00;101628.78;5078187;27;20031;-74
2023/07/14 03:08:49;;;;;;;10.73;5.90;;;;;;;14.66;100.00;101621.81;5094442;27;20035;-73
2023/07/14 03:11:35;;;;;;;9.18;5.50;;;;;;;14.64;100.00;101627.22;5093357;27;20231;-74
2023/07/14 03:14:20;;;;;;;8.70;5.13;;;;;;;14.66;100.00;101621.81;5078181;27;20123;-74
2023/07/14 03:17:07;;;;;;;12.23;5.68;;;;;;;14.65;100.00;101617.41;5091201;27;20488;-74
2023/07/14 03:19:52;;;;;;;11.38;5.57;;;;;;;14.64;100.00;101615.69;5092521;27;20038;-74
2023/07/14 03:22:38;;;;;;;7.90;5.30;;;;;;;14.63;100.00;101616.63;5091824;27;20052;-74
2023/07/14 03:25:26;;;;;;;9.25;5.75;;;;;;;14.63;100.00;101613.97;5076932;28;20035;-73
2023/07/14 03:28:12;;;;;;;9.30;5.97;;;;;;;14.62;100.00;101617.56;5076908;27;20589;-74
2023/07/14 03:30:57;;;;;;;12.23;5.60;;;;;;;14.60;100.00;101604.31;5074299;27;20036;-74
2023/07/14 03:33:43;;;;;;;8.05;5.38;;;;;;;14.59;100.00;101607.09;5076300;27;20118;-74
2023/07/14 03:36:29;;;;;;;8.35;5.60;;;;;;;14.58;100.00;101605.34;5091335;27;20096;-74
2023/07/14 03:39:26;;;;;;;9.68;5.88;;;;;;;14.57;100.00;101598.28;5090522;27;20128;-74
2023/07/14 03:42:12;;;;;;;11.38;5.75;;;;;;;14.52;100.00;101607.41;5090414;27;20392;-74
2023/07/14 03:44:58;;;;;;;13.77;5.88;;;;;;;14.51;100.00;101599.47;5093118;28;20400;-74
2023/07/14 03:47:44;;;;;;;10.55;5.82;;;;;;;14.51;100.00;101594.97;5091219;28;20103;-74
2023/07/14 03:50:30;;;;;;;11.60;6.07;;;;;;;14.50;100.00;101593.25;5092827;28;20038;-74
2023/07/14 03:53:16;;;;;;;6.85;4.90;;;;;;;14.50;100.00;101597.75;5090878;28;20028;-74
2023/07/14 03:56:02;;;;;;;7.70;5.72;;;;;;;14.50;100.00;101598.59;5093174;28;20035;-73
2023/07/14 03:58:47;;;;;;;10.90;6.10;;;;;;;14.50;100.00;101598.59;5093306;28;20043;-74
2023/07/14 04:01:33;;;;;;;8.05;5.45;;;;;;;14.49;100.00;101594.22;5075897;28;20035;-74
2023/07/14 04:04:20;;;;;;;11.23;5.35;;;;;;;14.49;100.00;101596.88;5093008;28;20043;-74
2023/07/14 04:07:07;;;;;;;8.88;5.43;;;;;;;14.51;100.00;101600.31;5078459;28;20144;-74
2023/07/14 04:09:53;;;;;;;11.38;5.55;;;;;;;14.53;100.00;101598.47;5075939;28;20187;-74
2023/07/14 04:12:39;;;;;;;12.10;5.43;;;;;;;14.53;100.00;101600.25;5089572;28;20104;-74
2023/07/14 04:15:25;;;;;;;9.60;5.78;;;;;;;14.46;100.00;101586.38;5076013;28;20987;-74
2023/07/14 04:18:10;;;;;;;9.40;5.80;;;;;;;14.44;100.00;101596.22;5092212;28;20047;-74
2023/07/14 04:21:13;;;;;;;8.40;5.60;;;;;;;14.40;100.00;101581.34;5076960;28;20039;-74
2023/07/14 04:23:59;;;;;;;8.48;5.78;;;;;;;14.36;100.00;101587.75;5077007;28;20040;-74
2023/07/14 04:26:45;;;;;;;8.60;5.97;;;;;;;14.31;100.00;101579.13;5090473;28;20035;-74
2023/07/14 04:29:31;;;;;;;11.52;5.97;;;;;;;14.30;100.00;101577.41;5088897;28;20041;-74
2023/07/14 04:32:17;;;;;;;9.20;6.05;;;;;;;14.29;100.00;101587.22;5093659;28;20044;-74
2023/07/14 04:35:04;;;;;;;10.73;5.55;;;;;;;14.29;100.00;101578.34;5094201;28;20040;-74
2023/07/14 04:37:49;;;;;;;9.70;6.05;;;;;;;14.30;100.00;101582.75;5075022;28;21869;-74
2023/07/14 04:40:42;;;;;;;8.10;4.85;;;;;;;14.30;100.00;101586.28;5058095;28;20044;-73
2023/07/14 04:43:27;;;;;;;9.70;5.57;;;;;;;14.32;100.00;101578.22;5089296;28;20803;-75
2023/07/14 04:46:13;;;;;;;8.50;5.40;;;;;;;14.36;100.00;101579.78;5071993;28;20036;-75
2023/07/14 04:48:59;;;;;;;9.15;5.40;;;;;;;14.37;100.00;101577.03;5091449;28;20170;-75
2023/07/14 04:51:45;;;;;;;11.05;5.35;;;;;;;14.41;100.00;101577.75;5092837;27;20039;-75
2023/07/14 04:54:30;;;;;;;9.93;5.32;;;;;;;14.44;100.00;101579.41;5079563;27;20084;-75
2023/07/14 04:57:17;;;;;;;7.32;5.38;;;;;;;14.49;100.00;101572.91;5065782;27;20129;-75
2023/07/14 05:00:05;;;;;;;8.77;5.65;;;;;;;14.55;100.00;101581.53;5082888;27;20491;-75
2023/07/14 05:02:53;;;;;;;8.82;5.32;;;;;;;14.61;100.00;101573.22;5094359;27;20105;-75
2023/07/14 05:05:39;;;;;;;9.98;5.05;;;;;;;14.67;100.00;101579.09;5093884;27;20040;-75
2023/07/14 05:08:30;;;;;;;9.70;5.22;;;;;;;14.75;100.00;101568.06;5078576;27;20032;-75
2023/07/14 05:11:16;;;;;;;8.15;4.85;;;;;;;14.82;100.00;101565.09;5074284;27;20043;-75
2023/07/14 05:14:04;;;;;;;9.50;5.35;;;;;;;14.90;100.00;101565.53;5081167;27;20044;-75
2023/07/14 05:16:49;;;;;;;8.80;5.22;;;;;;;14.97;100.00;101564.28;5093892;27;21028;-74
2023/07/14 05:19:35;;;;;;;10.20;5.15;;;;;;;15.04;100.00;101560.34;5097036;27;20164;-74
2023/07/14 05:22:21;;;;;;;9.15;5.20;;;;;;;15.12;100.00;101556.41;5096172;27;20044;-74
2023/07/14 05:25:07;;;;;;;8.25;4.72;;;;;;;15.19;100.00;101564.00;5092308;27;20038;-74
2023/07/14 05:27:53;;;;;;;9.88;5.07;;;;;;;15.28;100.00;101557.31;5096921;27;20103;-74
2023/07/14 05:30:39;;;;;;;8.25;4.60;;;;;;;15.37;100.00;101558.63;5098480;27;20044;-74
2023/07/14 05:33:25;;;;;;;11.05;4.93;;;;;;;15.45;100.00;101547.53;5098849;27;20066;-74
2023/07/14 05:36:11;;;;;;;8.85;5.00;;;;;;;15.55;100.00;101547.88;5097050;27;20035;-73
2023/07/14 05:38:57;;;;;;;8.52;4.50;;;;;;;15.64;100.00;101551.84;5073657;28;20073;-74
2023/07/14 05:41:42;;;;;;;9.43;4.32;;;;;;;15.73;100.00;101545.97;5094594;27;20043;-74
2023/07/14 05:44:28;;;;;;;6.85;4.22;;;;;;;15.86;100.00;101557.69;5084011;27;20096;-74
2023/07/14 05:47:14;;;;;;;8.30;4.70;;;;;;;15.97;100.00;101549.09;5070657;27;20051;-74
2023/07/14 05:50:00;;;;;;;7.13;4.50;;;;;;;16.08;100.00;101551.16;5068388;27;20039;-75
2023/07/14 05:52:46;;;;;;;7.72;4.63;;;;;;;16.18;100.00;101548.81;5097654;27;20407;-74
2023/07/14 05:55:32;;;;;;;21.65;5.22;;;;;;;16.30;100.00;101552.59;5096170;27;20034;-74
2023/07/14 05:58:18;;;;;;;18.35;5.47;;;;;;;16.44;100.00;101546.44;5097434;27;20036;-75
2023/07/14 06:01:04;;;;;;;6.78;4.00;;;;;;;16.60;100.00;101537.50;5082956;27;20688;-75
2023/07/14 06:03:50;;;;;;;11.25;4.72;;;;;;;16.74;100.00;101534.00;5080348;27;20121;-76
2023/07/14 06:06:35;;;;;;;9.70;3.97;;;;;;;16.87;100.00;101534.97;5079049;27;20039;-75
2023/07/14 06:09:21;;;;;;;7.68;3.90;;;;;;;16.98;100.00;101536.97;5094826;27;20117;-75
2023/07/14 06:12:09;;;;;;;8.30;4.07;;;;;;;17.14;100.00;101539.59;5094052;27;20449;-75
2023/07/14 06:14:55;;;;;;;6.40;4.07;;;;;;;17.31;100.00;101529.63;5079210;27;21052;-75
2023/07/14 06:17:41;;;;;;;8.15;4.05;;;;;;;17.45;100.00;101536.78;5096541;27;20100;-75
2023/07/14 06:20:26;;;;;;;8.48;4.05;;;;;;;17.60;100.00;101527.78;5094915;27;20052;-75
2023/07/14 06:23:12;;;;;;;11.15;3.95;;;;;;;17.76;100.00;101535.69;5091051;27;20074;-76
2023/07/14 06:25:58;;;;;;;8.20;3.50;;;;;;;17.90;100.00;101526.75;5096395;27;20039;-75
2023/07/14 06:28:44;;;;;;;8.80;3.72;;;;;;;18.03;100.00;101534.81;5094999;27;20235;-75
2023/07/14 06:31:30;;;;;;;6.53;3.63;;;;;;;18.16;100.00;101531.38;5073743;27;20090;-75
2023/07/14 06:34:15;;;;;;;5.95;3.45;;;;;;;18.36;100.00;101529.16;5095575;27;20043;-74
2023/07/14 06:37:01;;;;;;;7.30;3.40;;;;;;;18.64;100.00;101525.47;5094023;27;20055;-74
2023/07/14 06:39:47;;;;;;;6.97;3.35;;;;;;;18.86;100.00;101532.84;5078374;27;20063;-77
2023/07/14 06:42:33;;;;;;;6.70;3.20;;;;;;;19.04;100.00;101527.19;5074409;27;20047;-74
2023/07/14 06:45:18;;;;;;;7.25;3.50;;;;;;;19.21;100.00;101527.81;5079050;27;20046;-75
2023/07/14 06:48:05;;;;;;;6.60;3.15;;;;;;;19.35;100.00;101522.31;5093081;27;20099;-75
2023/07/14 06:50:51;;;;;;;5.85;3.80;;;;;;;19.45;100.00;101516.28;5076940;27;20061;-75
2023/07/14 06:53:36;;;;;;;6.50;3.40;;;;;;;19.56;100.00;101516.38;5093124;27;20043;-75
2023/07/14 06:56:23;;;;;;;8.23;2.75;;;;;;;19.54;100.00;101515.59;5078726;27;20027;-76
2023/07/14 06:59:09;;;;;;;5.22;2.95;;;;;;;19.63;100.00;101517.63;5081226;27;20497;-75
2023/07/14 07:01:54;;;;;;;5.68;2.80;;;;;;;19.85;100.00;101517.84;5089252;27;20480;-76
2023/07/14 07:04:41;;;;;;;5.57;3.03;;;;;;;20.05;100.00;101524.47;5073890;27;20031;-76
2023/07/14 07:07:26;;;;;;;5.55;3.03;;;;;;;20.12;100.00;101506.91;5093170;27;20048;-75
2023/07/14 07:10:12;;;;;;;4.97;2.90;;;;;;;20.24;100.00;101513.16;5071421;27;20043;-75
2023/07/14 07:12:58;;;;;;;6.03;2.90;;;;;;;20.32;100.00;101507.22;5095086;27;20068;-76
2023/07/14 07:15:44;;;;;;;3.97;2.83;;;;;;;20.34;100.00;101498.06;5092755;27;20039;-75
2023/07/14 07:18:30;;;;;;;5.30;3.22;;;;;;;20.56;100.00;101501.78;5080702;27;20034;-75
2023/07/14 07:21:16;;;;;;;7.95;3.05;;;;;;;20.69;100.00;101498.97;5094185;27;20043;-75
2023/07/14 07:24:05;;;;;;;5.53;3.40;;;;;;;20.61;100.00;101498.72;5092687;27;20756;-73
2023/07/14 07:26:51;;;;;;;5.97;2.83;;;;;;;20.57;100.00;101513.38;5095924;27;20039;-73
2023/07/14 07:29:40;;;;;;;6.10;3.40;;;;;;;20.54;100.00;101513.63;5093041;27;20036;-74
2023/07/14 07:32:26;;;;;;;4.72;2.80;;;;;;;20.71;100.00;101505.06;5092415;27;20096;-74
2023/07/14 07:35:12;;;;;;;6.25;3.60;;;;;;;20.94;100.00;101510.53;5092984;27;20063;-74
2023/07/14 07:37:59;;;;;;;5.05;3.13;;;;;;;21.09;100.00;101505.72;5093004;27;21926;-75
2023/07/14 07:40:46;;;;;;;5.93;2.60;;;;;;;21.11;100.00;101498.41;5075286;28;20780;-75
2023/07/14 07:43:31;;;;;;;5.32;2.80;;;;;;;20.98;100.00;101500.38;5093556;27;20039;-73
2023/07/14 07:46:19;;;;;;;3.92;2.55;;;;;;;20.93;100.00;101500.75;5093923;27;20110;-74
2023/07/14 07:49:04;;;;;;;4.70;2.45;;;;;;;21.15;100.00;101499.84;5078960;27;20031;-74
2023/07/14 07:51:50;;;;;;;3.63;2.50;;;;;;;21.33;100.00;101506.56;5093389;27;20081;-74
2023/07/14 07:54:36;;;;;;;5.03;2.70;;;;;;;21.55;100.00;101494.91;5094827;28;20605;-74
2023/07/14 07:57:22;;;;;;;3.80;2.17;;;;;;;21.64;99.51;101498.69;5078925;28;20044;-74
2023/07/14 08:00:11;;;;;;;6.35;2.80;;;;;;;21.86;99.29;101492.41;5065565;28;20046;-72
2023/07/14 08:02:56;;;;;;;9.70;2.70;;;;;;;22.07;98.87;101491.59;5079943;28;20046;-74
2023/07/14 08:05:42;;;;;;;4.65;2.78;;;;;;;22.14;97.70;101489.22;5092066;28;20095;-73
2023/07/14 08:08:28;;;;;;;4.25;3.30;;;;;;;22.37;98.13;101493.50;5089781;28;20046;-74
2023/07/14 08:11:14;;;;;;;4.30;2.80;;;;;;;22.65;96.87;101485.75;5080377;28;20040;-74
2023/07/14 08:14:04;;;;;;;4.88;2.53;;;;;;;22.88;96.12;101488.25;5093849;28;20036;-74
2023/07/14 08:16:49;;;;;;;3.58;2.30;;;;;;;22.84;94.59;101491.38;5071941;28;20630;-73
2023/07/14 08:19:36;;;;;;;5.72;2.17;;;;;;;22.99;94.33;101492.72;5090740;28;20143;-73
2023/07/14 08:22:23;;;;;;;5.45;2.40;;;;;;;23.10;92.87;101490.91;5089748;28;21720;-74
2023/07/14 08:25:09;;;;;;;4.10;2.15;;;;;;;23.08;91.43;101498.31;5071866;28;21949;-74
2023/07/14 08:27:54;;;;;;;4.18;2.25;;;;;;;23.07;91.34;101502.84;5075174;27;20044;-74
2023/07/14 08:30:40;;;;;;;5.30;2.40;;;;;;;23.19;90.63;101496.34;5095873;27;20515;-74
2023/07/14 08:33:26;;;;;;;3.33;2.10;;;;;;;23.28;89.42;101486.56;5081908;27;20040;-74
2023/07/14 08:36:13;;;;;;;4.60;2.38;;;;;;;23.29;89.34;101484.72;5094160;27;20035;-74
2023/07/14 08:38:58;;;;;;;3.63;2.55;;;;;;;23.27;88.37;101473.19;5091183;27;20067;-74
2023/07/14 08:41:46;;;;;;;4.65;2.40;;;;;;;23.44;88.80;101477.94;5095799;27;20059;-73
2023/07/14 08:44:50;;;;;;;3.35;1.83;;;;;;;23.45;83.89;101481.50;5097036;27;20657;-73
2023/07/14 08:47:52;;;;;;;2.45;1.70;;;;;;;23.59;82.87;101485.69;5082472;27;20110;-73
2023/07/14 08:50:38;;;;;;;3.67;2.00;;;;;;;23.81;86.76;101491.81;5069818;27;21822;-73
2023/07/14 08:53:27;;;;;;;3.72;1.88;;;;;;;24.08;86.48;101498.38;5080126;27;20043;-73
2023/07/14 08:56:16;;;;;;;3.08;1.80;;;;;;;24.07;83.86;101488.56;5078293;27;20462;-72
2023/07/14 08:59:03;;;;;;;3.05;2.17;;;;;;;23.94;84.22;101494.22;5078194;27;20035;-74
2023/07/14 09:01:52;;;;;;;3.75;2.22;;;;;;;23.62;83.88;101488.09;5063680;27;20051;-75
2023/07/14 09:04:38;;;;;;;3.25;2.13;;;;;;;23.22;84.19;101483.56;5080076;27;20044;-74
2023/07/14 09:07:24;;;;;;;5.07;2.92;;;;;;;22.96;84.43;101492.13;5082619;27;20032;-74
2023/07/14 09:10:12;;;;;;;5.18;2.40;;;;;;;22.74;83.76;101485.94;5082461;27;20035;-74
2023/07/14 09:13:08;;;;;;;3.50;2.13;;;;;;;22.47;81.95;101490.00;5061220;27;20063;-73
2023/07/14 09:15:55;;;;;;;5.32;2.40;;;;;;;22.36;84.43;101486.41;5093613;27;20039;-74
2023/07/14 09:19:07;;;;;;;4.00;2.25;;;;;;;22.36;83.08;101480.16;5070078;27;20050;-74
2023/07/14 09:22:36;;;;;;;5.40;2.20;;;;;;;22.08;81.83;101486.06;5071805;27;20032;-73
2023/07/14 09:25:28;;;;;;;6.10;2.50;;;;;;;22.28;85.80;101478.09;5077892;27;20681;-75
2023/07/14 09:28:47;;;;;;;3.03;2.33;;;;;;;22.48;80.55;101480.91;5092908;27;20483;-74
2023/07/14 09:31:38;;;;;;;3.35;2.00;;;;;;;22.69;82.65;101477.38;5064854;27;20051;-76
2023/07/14 09:34:33;;;;;;;10.43;6.28;;;;;;;22.88;82.21;101472.06;5075487;27;20408;-77
2023/07/14 09:37:21;;;;;;;4.70;2.22;;;;;;;23.08;82.56;101471.31;5075105;27;20196;-78
2023/07/14 09:40:17;;;;;;;4.57;2.28;;;;;;;23.27;80.61;101465.09;5070671;27;20028;-78
2023/07/14 09:43:05;;;;;;;3.10;2.00;;;;;;;23.29;79.91;101457.69;5091919;27;20256;-78
2023/07/14 09:45:55;;;;;;;5.82;1.85;;;;;;;23.30;77.51;101454.91;5076068;27;20055;-75
2023/07/14 09:48:44;;;;;;;4.22;2.15;;;;;;;23.22;77.31;101461.94;5071592;27;20579;-76
2023/07/14 09:51:30;;;;;;;3.17;1.60;;;;;;;23.22;76.44;101461.94;5075400;27;20031;-76
2023/07/14 09:54:16;;;;;;;2.45;1.83;;;;;;;23.32;76.24;101465.56;5085962;27;20074;-77
2023/07/14 09:57:02;;;;;;;2.80;2.13;;;;;;;23.45;75.15;101460.78;5090803;27;20050;-74
2023/07/14 09:59:54;;;;;;;6.05;2.38;;;;;;;23.47;73.69;101463.31;5093375;27;20039;-74
2023/07/14 10:02:39;;;;;;;4.43;2.00;;;;;;;23.56;74.86;101464.31;5088375;27;20759;-74
2023/07/14 10:05:31;;;;;;;4.63;1.90;;;;;;;23.68;73.96;101455.09;5090669;27;20657;-75
2023/07/14 10:08:44;;;;;;;4.00;2.22;;;;;;;23.85;72.91;101469.75;5092159;27;20035;-74
2023/07/14 10:11:46;;;;;;;4.25;2.50;;;;;;;23.96;74.71;101459.81;5091548;27;20031;-73
2023/07/14 10:14:36;;;;;;;6.45;2.85;;;;;;;24.16;74.20;101449.84;5079612;27;20036;-73
2023/07/14 10:17:25;;;;;;;4.00;2.30;;;;;;;23.92;74.07;101451.13;5078961;27;20578;-73
2023/07/14 10:20:16;;;;;;;5.72;2.90;;;;;;;23.90;74.64;101447.69;5094118;27;20272;-74
2023/07/14 10:23:02;;;;;;;3.67;2.67;;;;;;;23.94;75.76;101448.25;5066047;27;20104;-74
2023/07/14 10:25:50;;;;;;;3.63;2.55;;;;;;;24.01;75.32;101446.69;5097302;27;20064;-73
2023/07/14 10:28:37;;;;;;;3.15;2.13;;;;;;;24.25;74.27;101440.84;5079995;27;20035;-73
2023/07/14 10:31:28;;;;;;;5.38;2.88;;;;;;;24.39;74.39;101449.50;5095184;27;20145;-73
2023/07/14 10:34:17;;;;;;;4.55;2.55;;;;;;;24.59;73.36;101438.59;5093677;27;20038;-73
2023/07/14 10:37:09;;;;;;;5.53;2.63;;;;;;;24.45;72.34;101429.13;5078056;27;20122;-74
2023/07/14 10:40:00;;;;;;;;;;;;;;;24.37;69.84;101421.72;5076396;28;20036;-73
2023/07/14 10:43:16;;;;;;;5.70;3.10;;;;;;;24.32;72.63;101422.19;5082261;27;19924;-73
2023/07/14 10:46:13;;;;;;;4.03;2.75;;;;;;;24.42;72.69;101424.84;5081575;27;20377;-73
2023/07/14 10:49:22;;;;;;;8.38;3.50;;;;;;;24.42;70.85;101424.84;5079002;27;20113;-72
2023/07/14 10:52:14;;;;;;;4.82;2.90;;;;;;;24.36;72.19;101418.16;5080023;27;20428;-72
2023/07/14 10:55:04;;;;;;;3.50;2.40;;;;;;;24.34;72.46;101424.75;5080415;27;20069;-72
2023/07/14 10:58:04;;;;;;;4.57;2.30;;;;;;;24.28;70.55;101413.50;5079737;27;20396;-73
2023/07/14 11:00:52;;;;;;;3.63;2.33;;;;;;;24.30;72.18;101417.91;5080905;27;20047;-72
2023/07/14 11:03:40;;;;;;;3.83;2.83;;;;;;;24.33;72.56;101412.19;5079014;27;20046;-73
2023/07/14 11:06:28;;;;;;;3.60;2.70;;;;;;;24.37;72.50;101408.22;5080180;27;20046;-73
2023/07/14 11:09:15;;;;;;;5.05;2.60;;;;;;;24.36;72.30;101415.47;5089735;27;20463;-75
2023/07/14 11:12:23;;;;;;;4.70;2.47;;;;;;;24.28;67.46;101409.94;5079443;27;20047;-76
2023/07/14 11:15:11;;;;;;;4.60;2.60;;;;;;;24.12;69.18;101410.53;5074555;27;20122;-76
2023/07/14 11:18:18;;;;;;;3.90;2.67;;;;;;;24.13;69.24;101412.28;5089232;27;20164;-76
2023/07/14 11:21:28;;;;;;;4.32;2.60;;;;;;;24.11;69.41;101411.53;5074255;27;20053;-75
2023/07/14 11:24:18;;;;;;;4.07;2.63;;;;;;;24.08;69.93;101415.38;5078546;27;20161;-75
2023/07/14 11:27:14;;;;;;;6.25;2.10;;;;;;;24.23;70.84;101404.97;5078226;27;20036;-75
2023/07/14 11:30:05;;;;;;;4.40;2.70;;;;;;;24.38;70.31;101399.09;5063058;27;20055;-75
2023/07/14 11:33:14;;;;;;;4.15;2.40;;;;;;;24.28;67.68;101388.28;5094096;27;20045;-75
2023/07/14 11:36:03;;;;;;;4.70;3.15;;;;;;;24.25;69.55;101394.84;5078611;27;20063;-74
2023/07/14 11:39:07;;;;;;;6.68;3.30;;;;;;;24.26;68.85;101403.84;5095200;27;20055;-74
2023/07/14 11:41:53;;;;;;;4.90;3.20;;;;;;;24.28;71.08;101399.97;5095317;27;20141;-74
2023/07/14 11:44:39;;;;;;;8.75;3.72;;;;;;;24.31;71.45;101406.09;5092675;27;20036;-74
2023/07/14 11:47:32;;;;;;;7.20;3.55;;;;;;;24.21;70.61;101398.88;5080483;28;20046;-74
2023/07/14 11:50:17;;;;;;;4.88;3.00;;;;;;;24.13;72.21;101396.03;5077199;27;20484;-74
2023/07/14 11:53:06;;;;;;;5.10;2.97;;;;;;;24.09;71.54;101400.03;5094548;27;20059;-74
2023/07/14 11:55:52;;;;;;;4.72;3.20;;;;;;;24.08;72.77;101395.63;5094119;28;20411;-74
2023/07/14 11:58:39;;;;;;;5.68;3.33;;;;;;;24.10;72.79;101389.06;5078826;27;20043;-74
2023/07/14 12:01:28;;;;;;;5.57;3.50;;;;;;;24.04;73.73;101388.75;5079629;27;20036;-74
2023/07/14 12:04:32;;;;;;;5.40;3.33;;;;;;;24.04;72.02;101388.75;5082251;27;20486;-73
2023/07/14 12:07:22;;;;;;;5.38;3.28;;;;;;;24.00;73.50;101396.31;5081231;27;20407;-74
2023/07/14 12:10:15;;;;;;;4.75;2.90;;;;;;;24.02;73.06;101394.31;5096090;27;20039;-74
2023/07/14 12:13:16;;;;;;;5.75;3.35;;;;;;;24.04;72.30;101395.03;5081861;27;20574;-73
2023/07/14 12:16:02;;;;;;;5.65;2.85;;;;;;;24.06;73.71;101378.63;5098486;27;20039;-73
2023/07/14 12:19:03;;;;;;;6.25;3.03;;;;;;;24.16;72.84;101376.81;5080080;27;20661;-74
2023/07/14 12:22:05;;;;;;;4.95;2.85;;;;;;;24.23;71.44;101367.09;5076734;27;20031;-74
2023/07/14 12:24:51;;;;;;;4.87;2.63;;;;;;;24.28;72.65;101367.53;5098036;27;20035;-73
2023/07/14 12:27:38;;;;;;;8.00;3.33;;;;;;;24.31;72.79;101370.94;5098211;27;20280;-73
2023/07/14 12:30:29;;;;;;;7.38;3.55;;;;;;;24.23;72.17;101364.41;5095231;27;20043;-74
2023/07/14 12:33:17;;;;;;;5.00;2.75;;;;;;;24.12;71.99;101357.31;5081815;27;20044;-73
2023/07/14 12:36:03;;;;;;;5.00;3.20;;;;;;;23.91;71.83;101354.75;5080944;27;20044;-74
2023/07/14 12:38:51;;;;;;;5.78;4.10;;;;;;;23.81;71.95;101359.34;5098737;27;20051;-74
2023/07/14 12:41:40;;;;;;;8.05;3.97;;;;;;;23.67;71.63;101348.00;5095281;27;20047;-74
2023/07/14 12:44:33;;;;;;;7.10;3.65;;;;;;;23.46;71.38;101349.00;5067600;27;20047;-73
2023/07/14 12:47:20;;;;;;;4.68;3.35;;;;;;;23.29;71.59;101341.56;5098111;27;20522;-74
2023/07/14 12:50:14;;;;;;;5.88;3.60;;;;;;;23.12;70.54;101337.72;5092994;27;20035;-75
2023/07/14 12:52:59;;;;;;;6.32;3.60;;;;;;;22.92;71.26;101335.84;5082354;27;20722;-74
2023/07/14 12:55:45;;;;;;;6.72;4.07;;;;;;;22.76;71.36;101339.09;5066053;27;20035;-74
2023/07/14 12:58:31;;;;;;;6.05;3.83;;;;;;;22.61;71.48;101340.47;5092639;27;20500;-74